createdAt,value
2022-08-05T00:02:27.510Z,37.99
2022-08-05T00:04:56.171Z,38.22
2022-08-05T00:07:59.023Z,38.00
2022-08-05T00:10:10.359Z,37.88
2022-08-05T00:12:55.808Z,38.13
2022-08-05T00:15:56.229Z,38.40
2022-08-05T00:18:10.092Z,37.94
2022-08-05T00:20:48.950Z,38.14
2022-08-05T00:23:16.013Z,38.33
2022-08-05T00:25:45.599Z,38.41
2022-08-05T00:28:13.422Z,38.43
2022-08-05T00:30:41.065Z,38.38
2022-08-05T00:34:41.971Z,38.44
2022-08-05T00:36:15.977Z,38.90
2022-08-05T00:38:44.787Z,38.85
2022-08-05T00:41:12.086Z,38.70
2022-08-05T00:43:47.008Z,38.86
2022-08-05T00:46:16.698Z,39.26
2022-08-05T00:48:50.874Z,39.32
2022-08-05T00:51:51.066Z,39.35
2022-08-05T00:54:06.564Z,39.41
2022-08-05T00:56:33.527Z,39.63
2022-08-05T00:59:00.460Z,39.33
2022-08-05T01:01:42.566Z,39.88
2022-08-05T01:04:15.842Z,40.04
2022-08-05T01:06:43.653Z,40.18
2022-08-05T01:09:10.616Z,40.48
2022-08-05T01:11:39.617Z,40.55
2022-08-05T01:14:27.773Z,40.90
2022-08-05T01:17:14.042Z,40.95
2022-08-05T01:20:01.823Z,41.54
2022-08-05T01:22:31.742Z,41.26
2022-08-05T01:25:07.756Z,41.01
2022-08-05T01:27:40.984Z,41.56
2022-08-05T01:30:34.340Z,41.96
2022-08-05T01:33:06.251Z,42.06
2022-08-05T01:35:51.176Z,42.42
2022-08-05T01:38:27.218Z,43.23
2022-08-05T01:40:59.811Z,43.16
2022-08-05T01:43:29.403Z,44.10
2022-08-05T01:45:57.785Z,44.82
2022-08-05T01:48:26.068Z,44.41
2022-08-05T01:50:55.456Z,44.54
2022-08-05T01:53:54.928Z,44.62
2022-08-05T01:56:13.263Z,44.65
2022-08-05T01:59:01.004Z,44.55
2022-08-05T02:01:28.617Z,44.77
2022-08-05T02:04:05.420Z,44.51
2022-08-05T02:06:38.393Z,44.60
2022-08-05T02:09:06.372Z,44.73
2022-08-05T02:11:42.330Z,44.65
2022-08-05T02:14:17.541Z,45.15
2022-08-05T02:16:52.922Z,45.82
2022-08-05T02:19:28.892Z,46.29
2022-08-05T02:22:25.957Z,46.16
2022-08-05T02:25:00.062Z,45.52
2022-08-05T02:27:30.265Z,45.65
2022-08-05T02:30:16.618Z,46.01
2022-08-05T02:32:48.105Z,46.23
2022-08-05T02:35:18.957Z,46.89
2022-08-05T02:37:54.062Z,47.24
2022-08-05T02:40:21.890Z,47.19
2022-08-05T02:42:54.042Z,48.42
2022-08-05T02:45:24.070Z,48.45
2022-08-05T02:48:06.958Z,48.12
2022-08-05T02:50:44.044Z,47.78
2022-08-05T02:53:18.713Z,48.06
2022-08-05T02:55:54.746Z,48.58
2022-08-05T02:58:27.287Z,47.74
2022-08-05T03:00:56.788Z,47.69
2022-08-05T03:03:23.975Z,47.20
2022-08-05T03:06:55.285Z,47.51
2022-08-05T03:08:42.458Z,47.43
2022-08-05T03:11:54.642Z,47.61
2022-08-05T03:14:08.053Z,47.68
2022-08-05T03:16:35.848Z,47.79
2022-08-05T03:19:06.492Z,48.22
2022-08-05T03:21:41.535Z,48.19
2022-08-05T03:24:16.904Z,48.05
2022-08-05T03:26:43.948Z,48.09
2022-08-05T03:29:17.339Z,48.90
2022-08-05T03:31:57.394Z,48.74
2022-08-05T03:34:28.070Z,48.68
2022-08-05T03:36:55.825Z,48.65
2022-08-05T03:39:26.774Z,49.32
2022-08-05T03:41:56.299Z,49.34
2022-08-05T03:44:24.247Z,48.86
2022-08-05T03:46:51.283Z,49.49
2022-08-05T03:49:18.019Z,49.51
2022-08-05T03:52:50.200Z,49.56
2022-08-05T03:55:54.081Z,49.59
2022-08-05T03:57:45.527Z,50.12
2022-08-05T04:00:15.572Z,51.08
2022-08-05T04:02:57.846Z,50.47
2022-08-05T04:05:27.951Z,49.86
2022-08-05T04:08:05.554Z,50.49
2022-08-05T04:10:42.249Z,50.29
2022-08-05T04:13:09.275Z,50.90
2022-08-05T04:15:36.785Z,50.34
2022-08-05T04:18:07.397Z,50.97
2022-08-05T04:20:36.543Z,50.94
2022-08-05T04:23:03.669Z,50.83
2022-08-05T04:25:57.496Z,50.34
2022-08-05T04:28:17.956Z,50.25
2022-08-05T04:30:45.155Z,50.46
2022-08-05T04:33:12.543Z,50.07
2022-08-05T04:36:15.545Z,50.28
2022-08-05T04:38:39.538Z,50.31
2022-08-05T04:41:09.518Z,50.44
2022-08-05T04:43:37.351Z,49.41
2022-08-05T04:46:05.108Z,49.89
2022-08-05T04:48:32.285Z,49.85
2022-08-05T04:51:01.724Z,49.33
2022-08-05T04:53:33.606Z,48.91
2022-08-05T04:56:32.202Z,48.31
2022-08-05T04:58:49.850Z,47.87
2022-08-05T05:02:08.337Z,47.75
2022-08-05T05:04:03.815Z,48.08
2022-08-05T05:06:39.448Z,47.74
2022-08-05T05:09:14.272Z,47.94
2022-08-05T05:11:54.042Z,48.34
2022-08-05T05:14:28.023Z,48.17
2022-08-05T05:17:00.190Z,48.88
2022-08-05T05:19:36.598Z,49.46
2022-08-05T05:22:23.045Z,49.48
2022-08-05T05:24:57.634Z,49.40
2022-08-05T05:27:45.349Z,49.29
2022-08-05T05:30:29.316Z,48.39
2022-08-05T05:33:00.866Z,48.11
2022-08-05T05:35:34.153Z,46.69
2022-08-05T05:38:09.144Z,46.01
2022-08-05T05:40:39.301Z,45.35
2022-08-05T05:43:10.717Z,44.54
2022-08-05T05:45:37.518Z,44.20
2022-08-05T05:48:16.021Z,42.10
2022-08-05T05:50:44.228Z,39.88
2022-08-05T05:53:21.496Z,38.42
2022-08-05T05:55:51.769Z,36.15
2022-08-05T05:58:31.501Z,35.21
2022-08-05T06:01:13.409Z,34.59
2022-08-05T06:04:00.996Z,33.75
2022-08-05T06:06:31.107Z,32.92
2022-08-05T06:08:58.513Z,32.59
2022-08-05T06:11:25.273Z,32.42
2022-08-05T06:13:55.352Z,32.48
2022-08-05T06:16:28.928Z,31.76
2022-08-05T06:19:00.911Z,30.71
2022-08-05T06:21:36.505Z,30.12
2022-08-05T06:24:06.046Z,28.92
2022-08-05T06:26:35.084Z,28.85
2022-08-05T06:29:06.077Z,28.19
2022-08-05T06:31:33.590Z,27.94
2022-08-05T06:34:06.418Z,26.25
2022-08-05T06:36:56.647Z,25.32
2022-08-05T06:39:21.764Z,25.49
2022-08-05T06:41:49.634Z,25.45
2022-08-05T06:44:18.958Z,25.12
2022-08-05T06:46:50.807Z,24.67
2022-08-05T06:49:18.888Z,24.75
2022-08-05T06:51:48.084Z,25.27
2022-08-05T06:54:18.109Z,25.67
2022-08-05T06:56:54.693Z,26.38
2022-08-05T06:59:38.893Z,26.34
2022-08-05T07:02:09.255Z,26.17
2022-08-05T07:04:36.442Z,25.95
2022-08-05T07:07:03.420Z,24.75
2022-08-05T07:09:40.399Z,23.62
2022-08-05T07:12:07.897Z,22.34
2022-08-05T07:14:54.039Z,23.41
2022-08-05T07:17:58.408Z,23.11
2022-08-05T07:20:32.050Z,24.03
2022-08-05T07:22:55.401Z,25.84
2022-08-05T07:25:56.338Z,25.85
2022-08-05T07:28:11.619Z,23.71
2022-08-05T07:30:39.892Z,22.44
2022-08-05T07:33:16.190Z,20.67
2022-08-05T07:36:04.062Z,19.85
2022-08-05T07:38:35.346Z,19.08
2022-08-05T07:42:07.129Z,18.72
2022-08-05T07:43:58.353Z,18.20
2022-08-05T07:46:26.924Z,17.52
2022-08-05T07:49:01.615Z,17.85
2022-08-05T07:51:36.901Z,18.48
2022-08-05T07:54:08.412Z,18.90
2022-08-05T07:57:00.442Z,18.92
2022-08-05T07:59:38.638Z,19.16
2022-08-05T08:02:16.117Z,18.76
2022-08-05T08:04:45.052Z,18.42
2022-08-05T08:07:12.903Z,18.77
2022-08-05T08:09:39.626Z,19.36
2022-08-05T08:12:15.911Z,19.93
2022-08-05T08:14:48.139Z,20.40
2022-08-05T08:17:15.923Z,20.80
2022-08-05T08:20:22.956Z,20.31
2022-08-05T08:22:32.517Z,20.61
2022-08-05T08:25:03.246Z,20.53
2022-08-05T08:27:45.114Z,20.66
2022-08-05T08:30:29.414Z,20.00
2022-08-05T08:33:04.455Z,20.91
2022-08-05T08:35:35.149Z,22.51
2022-08-05T08:38:07.930Z,22.53
2022-08-05T08:40:35.857Z,21.73
2022-08-05T08:45:18.160Z,21.74
2022-08-05T08:45:52.945Z,21.48
2022-08-05T08:48:43.053Z,21.59
2022-08-05T08:52:01.957Z,22.40
2022-08-05T08:53:54.960Z,22.27
2022-08-05T08:56:23.664Z,22.15
2022-08-05T08:58:54.014Z,22.37
2022-08-05T09:01:21.339Z,23.28
2022-08-05T09:03:54.331Z,23.90
2022-08-05T09:06:24.297Z,24.61
2022-08-05T09:08:55.206Z,25.33
2022-08-05T09:11:51.499Z,26.19
2022-08-05T09:14:58.131Z,26.78
2022-08-05T09:16:55.847Z,28.10
2022-08-05T09:19:27.866Z,28.22
2022-08-05T09:22:22.997Z,26.92
2022-08-05T09:25:13.536Z,24.78
2022-08-05T09:28:04.669Z,23.87
2022-08-05T09:30:27.864Z,24.33
2022-08-05T09:33:01.184Z,25.48
2022-08-05T09:35:29.436Z,27.11
2022-08-05T09:38:16.459Z,28.26
2022-08-05T09:40:44.572Z,29.30
2022-08-05T09:43:49.386Z,30.48
2022-08-05T09:46:29.855Z,31.03
2022-08-05T09:49:08.273Z,31.42
2022-08-05T09:51:44.446Z,29.84
2022-08-05T09:54:16.345Z,28.10
2022-08-05T09:56:52.227Z,28.65
2022-08-05T09:59:23.894Z,28.21
2022-08-05T10:01:58.052Z,28.63
2022-08-05T10:04:35.380Z,28.36
2022-08-05T10:07:25.057Z,28.25
2022-08-05T10:10:04.412Z,28.35
2022-08-05T10:13:01.388Z,29.61
2022-08-05T10:15:35.656Z,30.19
2022-08-05T10:18:16.677Z,30.66
2022-08-05T10:20:47.787Z,30.05
2022-08-05T10:23:34.617Z,29.90
2022-08-05T10:26:13.957Z,28.63
2022-08-05T10:28:42.966Z,27.69
2022-08-05T10:32:54.070Z,26.72
2022-08-05T10:33:59.513Z,23.22
2022-08-05T10:36:27.565Z,23.73
2022-08-05T10:39:01.026Z,24.54
2022-08-05T10:41:47.383Z,25.07
2022-08-05T10:44:17.292Z,25.75
2022-08-05T10:46:46.058Z,26.07
2022-08-05T10:49:17.771Z,25.46
2022-08-05T10:52:00.255Z,24.49
2022-08-05T10:54:47.194Z,25.09
2022-08-05T10:57:29.386Z,26.32
2022-08-05T11:00:17.883Z,27.43
2022-08-05T11:03:23.300Z,28.37
2022-08-05T11:06:20.076Z,29.88
2022-08-05T11:09:05.784Z,30.38
2022-08-05T11:11:44.759Z,30.26
2022-08-05T11:14:42.843Z,30.94
2022-08-05T11:17:59.859Z,31.50
2022-08-05T11:20:32.823Z,32.37
2022-08-05T11:23:05.952Z,32.68
2022-08-05T11:26:05.015Z,33.56
2022-08-05T11:28:36.052Z,34.50
2022-08-05T11:31:06.209Z,34.04
2022-08-05T11:33:46.442Z,36.07
2022-08-05T11:36:34.440Z,36.58
2022-08-05T11:39:06.568Z,38.54
2022-08-05T11:42:01.264Z,38.36
2022-08-05T11:44:40.293Z,38.31
2022-08-05T11:47:15.177Z,37.71
2022-08-05T11:49:57.628Z,38.36
2022-08-05T11:52:29.316Z,38.41
2022-08-05T11:54:57.535Z,38.83
2022-08-05T11:58:08.222Z,40.26
2022-08-05T12:00:29.113Z,41.75
2022-08-05T12:02:57.307Z,42.80
2022-08-05T12:05:32.291Z,44.28
2022-08-05T12:08:09.693Z,47.28
2022-08-05T12:10:45.074Z,51.14
2022-08-05T12:13:18.824Z,52.27
2022-08-05T12:16:05.365Z,55.02
2022-08-05T12:18:42.628Z,54.87
2022-08-05T12:21:17.728Z,56.88
2022-08-05T12:23:53.359Z,56.84
2022-08-05T12:26:20.545Z,58.22
2022-08-05T12:28:50.020Z,59.68
2022-08-05T12:31:23.321Z,61.10
2022-08-05T12:34:01.404Z,60.33
2022-08-05T12:36:30.417Z,61.28
2022-08-05T12:38:59.002Z,59.57
2022-08-05T12:41:34.368Z,57.34
2022-08-05T12:44:06.175Z,56.70
2022-08-05T12:46:39.677Z,55.42
2022-08-05T12:49:13.560Z,52.28
2022-08-05T12:52:12.955Z,50.14
2022-08-05T12:54:32.533Z,50.42
2022-08-05T12:57:01.139Z,49.58
2022-08-05T13:00:08.666Z,50.57
2022-08-05T13:02:30.338Z,50.55
2022-08-05T13:04:57.430Z,50.80
2022-08-05T13:07:56.163Z,50.94
2022-08-05T13:10:19.621Z,50.62
2022-08-05T13:12:57.128Z,49.59
2022-08-05T13:15:41.414Z,48.25
2022-08-05T13:18:18.865Z,47.40
2022-08-05T13:20:47.042Z,46.54
2022-08-05T13:23:13.798Z,46.01
2022-08-05T13:25:52.343Z,43.22
2022-08-05T13:28:27.267Z,42.62
2022-08-05T13:30:54.285Z,41.84
2022-08-05T13:34:22.452Z,41.72
2022-08-05T13:36:09.591Z,39.47
2022-08-05T13:38:42.443Z,39.34
2022-08-05T13:41:13.083Z,39.01
2022-08-05T13:43:44.613Z,38.56
2022-08-05T13:46:13.957Z,38.89
2022-08-05T13:48:57.601Z,38.12
2022-08-05T13:51:27.643Z,38.28
2022-08-05T13:53:56.455Z,38.69
2022-08-05T13:56:25.304Z,38.97
2022-08-05T13:58:53.261Z,38.35
2022-08-05T14:01:23.678Z,38.45
2022-08-05T14:04:13.343Z,38.84
2022-08-05T14:06:40.110Z,37.70
2022-08-05T14:09:14.906Z,37.59
2022-08-05T14:12:00.670Z,37.83
2022-08-05T14:14:33.687Z,37.83
2022-08-05T14:17:00.793Z,38.06
2022-08-05T14:19:27.592Z,38.78
2022-08-05T14:22:09.926Z,38.31
2022-08-05T14:24:40.134Z,38.52
2022-08-05T14:27:18.270Z,38.60
2022-08-05T14:29:45.556Z,37.89
2022-08-05T14:32:26.827Z,37.12
2022-08-05T14:34:54.628Z,37.35
2022-08-05T14:37:24.309Z,36.43
2022-08-05T14:40:13.991Z,37.33
2022-08-05T14:42:43.675Z,36.80
2022-08-05T14:45:10.591Z,35.93
2022-08-05T14:48:03.700Z,35.43
2022-08-05T14:50:25.346Z,35.04
2022-08-05T14:52:58.318Z,34.31
2022-08-05T14:55:38.759Z,34.39
2022-08-05T14:58:11.372Z,32.84
2022-08-05T15:00:59.651Z,32.40
2022-08-05T15:03:33.286Z,32.13
2022-08-05T15:06:07.720Z,31.89
2022-08-05T15:08:59.375Z,31.97
2022-08-05T15:11:52.509Z,32.73
2022-08-05T15:14:20.159Z,32.78
2022-08-05T15:17:02.113Z,33.63
2022-08-05T15:19:31.201Z,33.96
2022-08-05T15:22:00.299Z,34.39
2022-08-05T15:24:28.468Z,34.83
2022-08-05T15:26:55.929Z,35.24
2022-08-05T15:29:29.708Z,35.72
2022-08-05T15:32:03.352Z,36.02
2022-08-05T15:34:33.886Z,36.21
2022-08-05T15:37:06.117Z,36.91
2022-08-05T15:40:59.707Z,36.37
2022-08-05T15:42:56.706Z,36.37
2022-08-05T15:45:10.517Z,37.12
2022-08-05T15:47:38.175Z,37.89
2022-08-05T15:50:05.983Z,37.96
2022-08-05T15:52:53.807Z,38.26
2022-08-05T15:55:25.034Z,38.79
2022-08-05T15:58:08.499Z,38.94
2022-08-05T16:01:04.146Z,38.74
2022-08-05T16:03:23.615Z,39.34
2022-08-05T16:05:52.801Z,39.45
2022-08-05T16:08:22.700Z,39.80
2022-08-05T16:10:50.987Z,40.03
2022-08-05T16:13:23.709Z,40.51
2022-08-05T16:15:58.934Z,40.35
2022-08-05T16:18:28.948Z,40.73
2022-08-05T16:20:56.046Z,41.87
2022-08-05T16:23:23.063Z,42.17
2022-08-05T16:25:53.283Z,42.44
2022-08-05T16:28:24.154Z,42.75
2022-08-05T16:30:52.194Z,43.18
2022-08-05T16:33:19.631Z,43.79
2022-08-05T16:35:52.477Z,44.19
2022-08-05T16:38:25.655Z,44.47
2022-08-05T16:41:00.252Z,44.64
2022-08-05T16:43:30.286Z,44.98
2022-08-05T16:46:03.477Z,45.19
2022-08-05T16:48:37.809Z,45.13
2022-08-05T16:51:09.870Z,46.22
2022-08-05T16:54:03.852Z,47.27
2022-08-05T16:56:25.713Z,47.80
2022-08-05T16:58:52.752Z,48.03
2022-08-05T17:01:20.284Z,48.51
2022-08-05T17:03:47.535Z,48.76
2022-08-05T17:06:16.359Z,49.32
2022-08-05T17:08:52.750Z,50.09
2022-08-05T17:11:23.774Z,51.13
2022-08-05T17:14:00.293Z,51.70
2022-08-05T17:16:36.368Z,51.27
2022-08-05T17:19:07.420Z,51.96
2022-08-05T17:21:37.325Z,52.59
2022-08-05T17:24:14.345Z,52.68
2022-08-05T17:26:52.701Z,53.11
2022-08-05T17:29:22.261Z,53.42
2022-08-05T17:31:56.790Z,53.92
2022-08-05T17:34:29.990Z,53.62
2022-08-05T17:36:59.069Z,53.94
2022-08-05T17:39:34.403Z,54.51
2022-08-05T17:42:20.155Z,54.83
2022-08-05T17:44:51.911Z,54.61
2022-08-05T17:47:22.509Z,54.97
2022-08-05T17:50:00.540Z,54.97
2022-08-05T17:52:32.152Z,56.10
2022-08-05T17:54:59.115Z,56.50
2022-08-05T17:57:25.856Z,56.73
2022-08-05T18:00:03.665Z,57.90
2022-08-05T18:02:34.241Z,58.49
2022-08-05T18:05:06.427Z,58.48
2022-08-05T18:07:41.399Z,58.28
2022-08-05T18:10:10.789Z,58.70
2022-08-05T18:12:38.369Z,59.19
2022-08-05T18:15:05.464Z,59.54
2022-08-05T18:18:01.699Z,59.77
2022-08-05T18:20:29.638Z,59.38
2022-08-05T18:23:04.868Z,60.83
2022-08-05T18:25:38.774Z,61.39
2022-08-05T18:28:06.847Z,60.72
2022-08-05T18:30:34.158Z,61.01
2022-08-05T18:33:01.486Z,61.92
2022-08-05T18:36:00.584Z,61.65
2022-08-05T18:38:19.336Z,62.28
2022-08-05T18:41:57.398Z,62.84
2022-08-05T18:43:42.964Z,63.38
2022-08-05T18:46:19.955Z,62.89
2022-08-05T18:48:51.833Z,63.13
2022-08-05T18:52:02.758Z,62.37
2022-08-05T18:54:28.372Z,61.83
2022-08-05T18:57:01.077Z,60.14
2022-08-05T18:59:43.728Z,59.78
2022-08-05T19:02:36.611Z,59.98
2022-08-05T19:06:06.103Z,59.42
2022-08-05T19:07:52.989Z,59.10
2022-08-05T19:10:27.990Z,58.23
2022-08-05T19:12:55.371Z,58.77
2022-08-05T19:15:58.228Z,58.15
2022-08-05T19:18:13.627Z,58.67
2022-08-05T19:20:52.265Z,58.36
2022-08-05T19:24:03.825Z,58.45
2022-08-05T19:26:08.481Z,58.40
2022-08-05T19:28:38.026Z,57.87
2022-08-05T19:31:08.387Z,57.25
2022-08-05T19:33:36.802Z,57.48
2022-08-05T19:36:06.251Z,57.63
2022-08-05T19:38:35.962Z,57.32
2022-08-05T19:41:06.981Z,56.93
2022-08-05T19:44:05.777Z,56.69
2022-08-05T19:46:30.278Z,56.49
2022-08-05T19:49:01.285Z,57.22
2022-08-05T19:52:05.155Z,55.55
2022-08-05T19:54:26.955Z,53.92
2022-08-05T19:56:59.487Z,53.78
2022-08-05T19:59:59.428Z,53.59
2022-08-05T20:02:17.598Z,53.71
2022-08-05T20:04:50.869Z,53.97
2022-08-05T20:07:38.916Z,55.22
2022-08-05T20:10:13.118Z,54.96
2022-08-05T20:12:46.028Z,54.80
2022-08-05T20:15:48.302Z,54.91
2022-08-05T20:18:09.792Z,55.72
2022-08-05T20:20:51.536Z,55.41
2022-08-05T20:23:22.252Z,56.04
2022-08-05T20:25:49.182Z,57.65
2022-08-05T20:28:19.289Z,58.09
